createdAt,value
2023-04-19T00:00:49.004Z,9.53
2023-04-19T00:03:18.411Z,9.48
2023-04-19T00:05:49.022Z,9.51
2023-04-19T00:08:17.714Z,9.51
2023-04-19T00:10:46.392Z,9.54
2023-04-19T00:13:15.144Z,9.44
2023-04-19T00:15:43.808Z,9.33
2023-04-19T00:18:12.449Z,9.38
2023-04-19T00:20:41.173Z,9.46
2023-04-19T00:23:11.240Z,9.51
2023-04-19T00:25:40.235Z,9.43
2023-04-19T00:28:08.919Z,9.49
2023-04-19T00:30:37.570Z,9.46
2023-04-19T00:33:12.817Z,9.46
2023-04-19T00:35:43.059Z,9.37
2023-04-19T00:38:13.229Z,9.47
2023-04-19T00:40:41.954Z,9.51
2023-04-19T00:43:10.723Z,9.56
2023-04-19T00:45:39.684Z,9.45
2023-04-19T00:48:08.606Z,9.42
2023-04-19T00:50:37.516Z,9.43
2023-04-19T00:53:06.463Z,9.35
2023-04-19T00:55:38.753Z,9.31
2023-04-19T00:58:08.831Z,9.29
2023-04-19T01:00:38.180Z,9.30
2023-04-19T01:03:08.986Z,9.33
2023-04-19T01:05:38.246Z,9.38
2023-04-19T01:08:08.437Z,9.44
2023-04-19T01:10:38.601Z,9.46
2023-04-19T01:13:07.293Z,9.36
2023-04-19T01:15:39.739Z,9.31
2023-04-19T01:18:08.487Z,9.31
2023-04-19T01:20:37.209Z,9.31
2023-04-19T01:23:11.563Z,9.38
2023-04-19T01:25:40.441Z,9.33
2023-04-19T01:28:09.132Z,9.24
2023-04-19T01:30:38.147Z,9.27
2023-04-19T01:33:06.765Z,9.29
2023-04-19T01:35:35.413Z,9.23
2023-04-19T01:38:05.463Z,9.17
2023-04-19T01:40:35.991Z,9.16
2023-04-19T01:43:07.691Z,9.12
2023-04-19T01:45:36.956Z,9.10
2023-04-19T01:48:06.182Z,9.13
2023-04-19T01:50:36.761Z,9.13
2023-04-19T01:53:06.661Z,9.12
2023-04-19T01:55:36.880Z,9.17
2023-04-19T01:58:05.533Z,9.12
2023-04-19T02:00:34.322Z,9.12
2023-04-19T02:03:06.408Z,9.05
2023-04-19T02:05:35.229Z,9.04
2023-04-19T02:08:03.852Z,9.01
2023-04-19T02:10:33.032Z,9.01
2023-04-19T02:13:03.210Z,9.02
2023-04-19T02:15:31.920Z,9.00
2023-04-19T02:18:01.374Z,8.97
2023-04-19T02:20:31.360Z,8.94
2023-04-19T02:23:00.156Z,8.87
2023-04-19T02:25:29.709Z,8.91
2023-04-19T02:27:58.420Z,8.88
2023-04-19T02:30:28.489Z,8.85
2023-04-19T02:32:58.813Z,8.85
2023-04-19T02:35:27.650Z,8.84
2023-04-19T02:37:56.665Z,8.89
2023-04-19T02:40:28.272Z,8.84
2023-04-19T02:42:56.930Z,8.80
2023-04-19T02:45:27.127Z,8.84
2023-04-19T02:47:57.027Z,8.81
2023-04-19T02:50:25.801Z,8.80
2023-04-19T02:52:55.080Z,8.80
2023-04-19T02:55:26.571Z,8.73
2023-04-19T02:58:05.660Z,8.69
2023-04-19T03:00:39.966Z,8.72
2023-04-19T03:03:13.016Z,8.65
2023-04-19T03:05:41.987Z,8.60
2023-04-19T03:08:12.117Z,8.63
2023-04-19T03:10:41.469Z,8.62
2023-04-19T03:13:11.384Z,8.61
2023-04-19T03:15:41.501Z,8.65
2023-04-19T03:18:11.049Z,8.68
2023-04-19T03:20:42.170Z,8.73
2023-04-19T03:23:11.022Z,8.51
2023-04-19T03:25:40.263Z,8.62
2023-04-19T03:28:20.728Z,8.58
2023-04-19T03:31:09.404Z,8.58
2023-04-19T03:33:39.752Z,8.60
2023-04-19T03:36:09.278Z,8.51
2023-04-19T03:38:40.899Z,8.50
2023-04-19T03:41:25.423Z,8.48
2023-04-19T03:44:17.471Z,8.46
2023-04-19T03:46:49.020Z,8.53
2023-04-19T03:49:22.654Z,8.47
2023-04-19T03:52:00.798Z,8.45
2023-04-19T03:54:29.855Z,8.49
2023-04-19T03:56:59.558Z,8.53
2023-04-19T03:59:28.691Z,8.49
2023-04-19T04:01:59.353Z,8.46
2023-04-19T04:04:30.708Z,8.42
2023-04-19T04:06:59.709Z,8.40
2023-04-19T04:09:28.387Z,8.32
2023-04-19T04:11:57.784Z,8.33
2023-04-19T04:14:26.876Z,8.34
2023-04-19T04:17:00.122Z,8.38
2023-04-19T04:19:30.578Z,8.30
2023-04-19T04:21:59.797Z,8.21
2023-04-19T04:24:30.271Z,8.15
2023-04-19T04:27:13.599Z,8.22
2023-04-19T04:29:44.082Z,8.24
2023-04-19T04:32:14.404Z,8.27
2023-04-19T04:34:45.823Z,8.17
2023-04-19T04:37:20.956Z,8.22
2023-04-19T04:39:49.930Z,8.22
2023-04-19T04:42:21.725Z,8.17
2023-04-19T04:44:51.193Z,8.09
2023-04-19T04:47:20.313Z,8.13
2023-04-19T04:49:56.849Z,8.07
2023-04-19T04:52:25.788Z,8.05
2023-04-19T04:55:03.181Z,7.98
2023-04-19T04:57:35.644Z,7.94
2023-04-19T05:00:07.952Z,7.96
2023-04-19T05:02:45.276Z,7.95
2023-04-19T05:05:15.787Z,7.95
2023-04-19T05:07:44.537Z,7.86
2023-04-19T05:10:13.797Z,7.95
2023-04-19T05:12:47.017Z,7.92
2023-04-19T05:15:16.926Z,7.89
2023-04-19T05:17:50.821Z,7.83
2023-04-19T05:20:22.950Z,7.75
2023-04-19T05:23:00.794Z,7.75
2023-04-19T05:25:29.886Z,7.81
2023-04-19T05:27:59.129Z,7.79
2023-04-19T05:30:33.222Z,7.69
2023-04-19T05:33:02.772Z,7.61
2023-04-19T05:35:33.035Z,7.67
2023-04-19T05:38:01.878Z,7.71
2023-04-19T05:40:31.011Z,7.66
2023-04-19T05:43:00.699Z,7.64
2023-04-19T05:45:29.689Z,7.77
2023-04-19T05:47:58.453Z,7.78
2023-04-19T05:50:58.190Z,7.68
2023-04-19T05:53:48.047Z,7.71
2023-04-19T05:56:17.040Z,7.60
2023-04-19T05:58:45.762Z,7.55
2023-04-19T06:01:14.645Z,7.51
2023-04-19T06:03:43.616Z,7.56
2023-04-19T06:06:14.888Z,7.51
2023-04-19T06:08:43.697Z,7.60
2023-04-19T06:11:23.223Z,7.65
2023-04-19T06:13:53.513Z,7.70
2023-04-19T06:16:22.731Z,7.68
2023-04-19T06:18:51.569Z,7.74
2023-04-19T06:21:21.661Z,7.78
2023-04-19T06:23:50.283Z,7.75
2023-04-19T06:26:19.216Z,7.83
2023-04-19T06:28:47.862Z,7.95
2023-04-19T06:31:16.570Z,8.02
2023-04-19T06:33:46.069Z,8.05
2023-04-19T06:36:14.847Z,7.97
2023-04-19T06:38:46.629Z,7.91
2023-04-19T06:41:15.381Z,8.12
2023-04-19T06:43:44.994Z,8.16
2023-04-19T06:46:15.918Z,8.19
2023-04-19T06:48:44.811Z,8.23
2023-04-19T06:51:13.489Z,8.18
2023-04-19T06:53:42.146Z,8.22
2023-04-19T06:56:13.504Z,8.12
2023-04-19T06:58:42.196Z,8.13
2023-04-19T07:01:10.921Z,8.15
2023-04-19T07:03:39.920Z,8.07
2023-04-19T07:06:09.156Z,8.12
2023-04-19T07:08:49.185Z,8.12
2023-04-19T07:11:21.232Z,8.07
2023-04-19T07:13:52.059Z,8.01
2023-04-19T07:16:21.894Z,8.10
2023-04-19T07:18:50.704Z,8.06
2023-04-19T07:21:19.399Z,8.09
2023-04-19T07:23:48.144Z,8.11
2023-04-19T07:26:16.902Z,8.09
2023-04-19T07:28:47.710Z,8.19
2023-04-19T07:31:17.811Z,8.30
2023-04-19T07:33:47.052Z,8.21
2023-04-19T07:36:15.931Z,8.33
2023-04-19T07:38:44.855Z,8.30
2023-04-19T07:41:13.761Z,8.26
2023-04-19T07:43:42.575Z,8.32
2023-04-19T07:46:16.145Z,8.43
2023-04-19T07:48:44.999Z,8.46
2023-04-19T07:51:16.849Z,8.56
2023-04-19T07:53:48.167Z,8.64
2023-04-19T07:56:17.141Z,8.70
2023-04-19T07:58:50.907Z,8.76
2023-04-19T08:01:26.955Z,8.81
2023-04-19T08:03:55.895Z,8.85
2023-04-19T08:06:24.887Z,8.90
2023-04-19T08:08:53.677Z,8.93
2023-04-19T08:11:22.357Z,8.95
2023-04-19T08:14:28.510Z,8.96
2023-04-19T08:17:19.519Z,9.11
2023-04-19T08:19:29.828Z,9.20
2023-04-19T08:21:58.580Z,9.22
2023-04-19T08:24:27.609Z,9.23
2023-04-19T08:26:57.090Z,9.33
2023-04-19T08:29:27.521Z,9.46
2023-04-19T08:31:57.687Z,9.54
2023-04-19T08:34:26.472Z,9.54
2023-04-19T08:37:03.531Z,9.63
2023-04-19T08:39:34.405Z,9.65
2023-04-19T08:42:13.316Z,9.68
2023-04-19T08:45:13.763Z,9.82
2023-04-19T08:47:59.554Z,9.91
2023-04-19T08:53:16.499Z,10.13
2023-04-19T08:56:08.797Z,10.16
2023-04-19T08:58:57.981Z,10.19
2023-04-19T09:01:34.548Z,10.33
2023-04-19T09:04:34.054Z,10.57
2023-04-19T09:06:57.190Z,10.65
2023-04-19T09:09:37.013Z,10.62
2023-04-19T09:12:18.819Z,10.56
2023-04-19T09:17:20.736Z,10.93
2023-04-19T09:19:51.314Z,11.10
2023-04-19T09:22:20.306Z,11.19
2023-04-19T09:27:30.496Z,11.44
2023-04-19T09:30:01.157Z,11.61
2023-04-19T09:32:31.464Z,11.83
2023-04-19T09:35:01.994Z,12.00
2023-04-19T09:37:56.793Z,12.15
2023-04-19T09:40:25.381Z,12.13
2023-04-19T09:43:08.583Z,11.99
2023-04-19T09:45:44.328Z,11.99
2023-04-19T09:48:14.602Z,11.96
2023-04-19T09:51:04.561Z,11.96
2023-04-19T09:53:35.482Z,11.89
2023-04-19T09:56:06.281Z,11.65
2023-04-19T09:58:48.905Z,11.46
2023-04-19T10:01:22.648Z,11.55
2023-04-19T10:03:53.091Z,11.46
2023-04-19T10:08:56.820Z,11.07
2023-04-19T10:11:37.249Z,11.34
2023-04-19T10:14:08.630Z,11.37
2023-04-19T10:16:39.649Z,11.32
2023-04-19T10:19:12.903Z,11.22
2023-04-19T10:21:46.750Z,11.13
2023-04-19T10:24:18.552Z,11.01
2023-04-19T10:27:12.277Z,11.36
2023-04-19T10:30:01.952Z,11.41
2023-04-19T10:32:38.299Z,11.37
2023-04-19T10:35:12.008Z,11.19
2023-04-19T10:38:03.005Z,11.53
2023-04-19T10:41:04.253Z,12.08
2023-04-19T10:43:34.415Z,12.08
2023-04-19T10:46:09.205Z,12.27
2023-04-19T10:48:53.722Z,12.51
2023-04-19T10:51:28.151Z,12.28
2023-04-19T10:54:00.515Z,12.14
2023-04-19T10:57:10.316Z,11.66
2023-04-19T10:59:40.514Z,11.38
2023-04-19T11:02:30.863Z,11.32
2023-04-19T11:05:04.151Z,11.43
2023-04-19T11:07:41.288Z,11.57
2023-04-19T11:10:12.885Z,11.54
2023-04-19T11:12:46.035Z,11.92
2023-04-19T11:15:14.818Z,12.78
2023-04-19T11:17:43.649Z,12.71
2023-04-19T11:20:14.795Z,12.40
2023-04-19T11:22:46.268Z,12.22
2023-04-19T11:25:19.548Z,12.87
2023-04-19T11:27:50.953Z,13.12
2023-04-19T11:30:22.718Z,13.67
2023-04-19T11:32:55.002Z,14.44
2023-04-19T11:35:25.670Z,14.60
2023-04-19T11:37:56.380Z,14.44
2023-04-19T11:40:27.720Z,14.15
2023-04-19T11:43:00.574Z,13.67
2023-04-19T11:45:34.516Z,13.63
2023-04-19T11:48:07.753Z,13.42
2023-04-19T11:50:39.994Z,13.08
2023-04-19T11:53:17.197Z,12.86
2023-04-19T11:55:51.524Z,12.70
2023-04-19T11:58:31.157Z,12.76
2023-04-19T12:01:06.653Z,12.55
2023-04-19T12:03:37.195Z,12.34
2023-04-19T12:06:09.219Z,12.19
2023-04-19T12:08:40.332Z,11.80
2023-04-19T12:11:10.633Z,11.66
2023-04-19T12:13:40.948Z,11.51
2023-04-19T12:16:10.070Z,11.40
2023-04-19T12:18:50.305Z,11.51
2023-04-19T12:21:32.123Z,11.68
2023-04-19T12:24:03.767Z,11.91
2023-04-19T12:26:34.167Z,11.93
2023-04-19T12:29:04.887Z,11.93
2023-04-19T12:31:34.067Z,12.18
2023-04-19T12:34:03.104Z,12.38
2023-04-19T12:36:31.894Z,12.63
2023-04-19T12:39:00.616Z,12.50
2023-04-19T12:41:29.317Z,12.46
2023-04-19T12:43:59.372Z,12.59
2023-04-19T12:46:28.479Z,12.91
2023-04-19T12:48:57.567Z,12.96
2023-04-19T12:51:27.989Z,13.00
2023-04-19T12:53:56.750Z,12.85
2023-04-19T12:56:37.982Z,12.84
2023-04-19T12:59:08.050Z,12.94
2023-04-19T13:01:37.329Z,13.26
2023-04-19T13:04:09.130Z,13.30
2023-04-19T13:06:38.433Z,13.12
2023-04-19T13:09:14.360Z,13.12
2023-04-19T13:11:43.917Z,12.95
2023-04-19T13:14:14.699Z,12.67
2023-04-19T13:16:43.793Z,12.48
2023-04-19T13:19:12.942Z,12.93
2023-04-19T13:21:45.278Z,13.75
2023-04-19T13:24:15.976Z,13.69
2023-04-19T13:26:46.518Z,13.52
2023-04-19T13:29:17.641Z,13.54
2023-04-19T13:31:49.515Z,13.86
2023-04-19T13:34:19.014Z,14.06
2023-04-19T13:36:50.015Z,14.13
2023-04-19T13:39:21.306Z,14.40
2023-04-19T13:41:50.416Z,14.12
2023-04-19T13:44:20.696Z,13.86
2023-04-19T13:46:49.837Z,14.36
2023-04-19T13:49:22.225Z,15.31
2023-04-19T13:51:51.161Z,15.40
2023-04-19T13:54:21.322Z,15.13
2023-04-19T13:56:52.271Z,14.63
2023-04-19T13:59:26.135Z,14.04
2023-04-19T14:01:56.018Z,13.55
2023-04-19T14:04:25.562Z,13.34
2023-04-19T14:06:54.840Z,13.51
2023-04-19T14:09:23.610Z,13.87
2023-04-19T14:11:58.963Z,13.94
2023-04-19T14:14:31.615Z,13.54
2023-04-19T14:17:01.663Z,13.19
2023-04-19T14:19:32.235Z,12.96
2023-04-19T14:22:02.094Z,12.74
2023-04-19T14:24:32.211Z,12.55
2023-04-19T14:29:39.601Z,12.16
2023-04-19T14:32:26.072Z,12.04
2023-04-19T14:34:57.302Z,11.78
2023-04-19T14:37:26.324Z,11.65
2023-04-19T14:39:55.620Z,11.48
2023-04-19T14:42:26.315Z,11.35
2023-04-19T14:45:00.837Z,11.17
2023-04-19T14:47:29.901Z,10.92
2023-04-19T14:49:59.469Z,10.89
2023-04-19T14:52:30.459Z,10.82
2023-04-19T14:54:59.943Z,10.69
2023-04-19T14:57:29.298Z,10.71
2023-04-19T15:00:01.419Z,10.68
2023-04-19T15:02:30.489Z,10.64
2023-04-19T15:04:59.544Z,10.61
2023-04-19T15:07:28.688Z,10.64
2023-04-19T15:09:57.369Z,10.52
2023-04-19T15:12:26.323Z,10.45
2023-04-19T15:14:55.182Z,10.54
2023-04-19T15:17:26.824Z,10.56
2023-04-19T15:19:55.659Z,10.44
2023-04-19T15:22:24.679Z,10.39
2023-04-19T15:24:53.740Z,10.37
2023-04-19T15:27:22.863Z,10.32
2023-04-19T15:29:52.257Z,10.13
2023-04-19T15:32:21.285Z,9.86
2023-04-19T15:34:51.689Z,9.82
2023-04-19T15:37:21.102Z,9.68
2023-04-19T15:39:50.330Z,9.64
2023-04-19T15:42:19.127Z,9.51
2023-04-19T15:44:48.007Z,9.39
2023-04-19T15:47:17.381Z,9.33
2023-04-19T15:49:47.446Z,9.32
2023-04-19T15:52:18.929Z,9.36
2023-04-19T15:54:49.216Z,9.28
2023-04-19T15:57:18.089Z,9.36
2023-04-19T15:59:46.959Z,9.39
2023-04-19T16:02:15.916Z,9.47
2023-04-19T16:04:47.876Z,9.40
2023-04-19T16:07:18.309Z,9.35
2023-04-19T16:09:47.016Z,9.40
2023-04-19T16:12:15.823Z,9.38
2023-04-19T16:14:44.542Z,9.45
2023-04-19T16:17:13.233Z,9.37
2023-04-19T16:19:42.180Z,9.36
2023-04-19T16:22:13.873Z,9.40
2023-04-19T16:24:44.071Z,9.34
2023-04-19T16:27:13.931Z,9.37
2023-04-19T16:29:45.192Z,9.29
2023-04-19T16:32:14.227Z,9.27
2023-04-19T16:34:43.415Z,9.35
2023-04-19T16:37:12.046Z,9.38
2023-04-19T16:39:41.515Z,9.45
2023-04-19T16:42:12.649Z,9.47
2023-04-19T16:44:41.489Z,9.51
2023-04-19T16:47:10.696Z,9.52
2023-04-19T16:49:39.525Z,9.49
2023-04-19T16:52:08.197Z,9.45
2023-04-19T16:54:38.009Z,9.29
2023-04-19T16:57:06.924Z,9.35
2023-04-19T16:59:37.214Z,9.39
2023-04-19T17:02:08.960Z,9.45
2023-04-19T17:04:38.218Z,9.51
2023-04-19T17:07:08.801Z,9.49
2023-04-19T17:09:38.105Z,9.52
2023-04-19T17:12:34.845Z,9.43
2023-04-19T17:15:06.878Z,9.35
2023-04-19T17:17:38.402Z,9.35
2023-04-19T17:20:09.132Z,9.32
2023-04-19T17:22:38.040Z,9.29
2023-04-19T17:25:08.119Z,9.30
2023-04-19T17:27:39.151Z,9.19
2023-04-19T17:30:10.816Z,9.18
2023-04-19T17:32:39.658Z,9.17
2023-04-19T17:35:09.523Z,9.13
2023-04-19T17:37:38.471Z,9.14
2023-04-19T17:40:09.364Z,9.08
2023-04-19T17:42:38.365Z,9.03
2023-04-19T17:45:11.343Z,9.03
2023-04-19T17:47:40.339Z,8.99
2023-04-19T17:50:13.018Z,8.98
2023-04-19T17:52:42.221Z,8.99
2023-04-19T17:55:11.520Z,8.98
2023-04-19T17:57:40.789Z,8.99
2023-04-19T18:00:17.195Z,8.99
2023-04-19T18:02:46.973Z,8.99
2023-04-19T18:05:17.638Z,8.96
2023-04-19T18:07:46.874Z,8.93
2023-04-19T18:10:16.000Z,8.92
2023-04-19T18:12:46.098Z,8.90
2023-04-19T18:15:17.160Z,8.92
2023-04-19T18:17:46.642Z,8.90
2023-04-19T18:20:16.659Z,8.86
2023-04-19T18:22:49.065Z,8.83
2023-04-19T18:25:18.089Z,8.83
2023-04-19T18:27:48.300Z,8.80
2023-04-19T18:30:19.389Z,8.80
2023-04-19T18:32:50.145Z,8.81
2023-04-19T18:35:19.180Z,8.78
2023-04-19T18:37:47.900Z,8.79
2023-04-19T18:40:17.743Z,8.80
2023-04-19T18:42:46.889Z,8.78
2023-04-19T18:45:17.843Z,8.77
2023-04-19T18:47:47.399Z,8.74
2023-04-19T18:50:19.028Z,8.70
2023-04-19T18:52:48.152Z,8.63
2023-04-19T18:55:18.062Z,8.58
2023-04-19T18:57:46.696Z,8.56
2023-04-19T19:00:19.036Z,8.55
2023-04-19T19:02:48.060Z,8.55
2023-04-19T19:05:16.987Z,8.51
2023-04-19T19:07:46.099Z,8.37
2023-04-19T19:10:19.022Z,8.28
2023-04-19T19:12:50.940Z,8.19
2023-04-19T19:15:21.091Z,8.18
2023-04-19T19:17:50.701Z,8.16
2023-04-19T19:20:20.520Z,8.13
2023-04-19T19:22:49.482Z,8.01
2023-04-19T19:25:18.657Z,7.93
2023-04-19T19:28:05.379Z,7.74
2023-04-19T19:30:39.853Z,7.72
2023-04-19T19:33:09.190Z,7.78
2023-04-19T19:35:39.613Z,7.80
2023-04-19T19:38:08.734Z,7.69
2023-04-19T19:40:58.241Z,7.70
2023-04-19T19:43:26.608Z,7.68
2023-04-19T19:45:56.830Z,7.69
2023-04-19T19:48:26.481Z,7.65
2023-04-19T19:53:31.974Z,7.57
2023-04-19T19:56:01.832Z,7.49
2023-04-19T19:58:48.181Z,7.50
2023-04-19T20:01:22.601Z,7.43
2023-04-19T20:03:52.568Z,7.45
2023-04-19T20:08:54.472Z,7.47
2023-04-19T20:11:23.630Z,7.48
2023-04-19T20:13:52.476Z,7.49
2023-04-19T20:16:23.506Z,7.49
2023-04-19T20:18:52.732Z,7.41
2023-04-19T20:21:21.499Z,7.41
2023-04-19T20:24:19.647Z,7.44
2023-04-19T20:26:49.612Z,7.40
2023-04-19T20:29:18.426Z,7.35
2023-04-19T20:31:48.749Z,7.29
2023-04-19T20:34:17.876Z,7.26
2023-04-19T20:36:47.303Z,7.27
2023-04-19T20:39:16.378Z,7.19
2023-04-19T20:41:47.978Z,7.14
2023-04-19T20:44:17.811Z,7.15
2023-04-19T20:46:48.837Z,7.20
2023-04-19T20:49:17.701Z,7.20
2023-04-19T20:51:48.460Z,7.23
2023-04-19T20:54:17.209Z,7.24
2023-04-19T20:56:45.896Z,7.09
2023-04-19T20:59:14.884Z,6.99
2023-04-19T21:01:43.899Z,6.96
2023-04-19T21:04:14.288Z,7.09
2023-04-19T21:06:45.154Z,7.14
2023-04-19T21:09:14.278Z,7.17
2023-04-19T21:11:42.951Z,7.16
2023-04-19T21:14:11.671Z,7.18
2023-04-19T21:16:40.538Z,7.17
2023-04-19T21:19:09.237Z,7.15
2023-04-19T21:21:39.398Z,7.13
2023-04-19T21:24:09.779Z,7.06
2023-04-19T21:26:38.476Z,7.10
2023-04-19T21:29:07.166Z,7.09
2023-04-19T21:31:35.820Z,6.95
2023-04-19T21:34:04.940Z,7.01
2023-04-19T21:36:33.717Z,7.03
2023-04-19T21:39:04.097Z,7.09
2023-04-19T21:41:32.804Z,7.06
2023-04-19T21:44:01.537Z,6.92
2023-04-19T21:46:30.231Z,6.93
2023-04-19T21:48:58.947Z,6.95
2023-04-19T21:51:27.689Z,6.96
2023-04-19T21:53:56.436Z,6.99
2023-04-19T21:56:26.788Z,7.02
2023-04-19T21:58:55.576Z,7.05
2023-04-19T22:01:24.256Z,7.05
2023-04-19T22:03:53.120Z,6.97
2023-04-19T22:06:22.079Z,6.91
2023-04-19T22:08:51.425Z,6.87
2023-04-19T22:11:20.128Z,6.74
2023-04-19T22:13:50.308Z,6.66
2023-04-19T22:16:19.162Z,6.67
2023-04-19T22:18:48.119Z,6.75
2023-04-19T22:21:16.861Z,6.78
2023-04-19T22:23:46.660Z,6.62
2023-04-19T22:26:15.364Z,6.59
2023-04-19T22:28:44.162Z,6.62
2023-04-19T22:31:14.212Z,6.66
2023-04-19T22:33:42.904Z,6.69
2023-04-19T22:36:11.774Z,6.71
2023-04-19T22:38:40.430Z,6.70
2023-04-19T22:41:09.129Z,6.70
2023-04-19T22:43:38.006Z,6.69
2023-04-19T22:46:06.949Z,6.67
2023-04-19T22:48:37.325Z,6.67
2023-04-19T22:51:06.578Z,6.68
2023-04-19T22:53:35.563Z,6.70
2023-04-19T22:56:04.348Z,6.67
2023-04-19T22:58:33.098Z,6.54
2023-04-19T23:01:01.931Z,6.52
2023-04-19T23:03:30.692Z,6.40
2023-04-19T23:06:03.508Z,6.48
2023-04-19T23:08:33.443Z,6.29
2023-04-19T23:11:02.260Z,6.34
2023-04-19T23:13:30.972Z,6.39
2023-04-19T23:15:59.851Z,6.44
2023-04-19T23:18:30.029Z,6.51
2023-04-19T23:21:00.171Z,6.55
2023-04-19T23:23:28.869Z,6.59
2023-04-19T23:25:57.541Z,6.58
2023-04-19T23:28:26.332Z,6.54
2023-04-19T23:30:55.122Z,6.56
2023-04-19T23:33:23.847Z,6.59
2023-04-19T23:35:52.815Z,6.41
2023-04-19T23:38:23.177Z,6.29
2023-04-19T23:40:51.883Z,6.24
2023-04-19T23:43:20.533Z,6.24
2023-04-19T23:45:49.205Z,6.29
2023-04-19T23:48:17.961Z,6.16
2023-04-19T23:50:46.602Z,6.18
2023-04-19T23:53:15.261Z,6.24
2023-04-19T23:55:45.324Z,6.20
2023-04-19T23:58:14.185Z,6.09
